Aviation Digital Data Service (ADDS)

Output produced by METARs form (0452 UTC 20 April 2018)
found at http://aviationweather.gov/adds/metars/
 
Forecast for: KORD (CHICAGO O'HARE , IL, US)
Text: KORD 200238Z 2003/2106 VRB03KT P6SM SKC
Forecast period: 0300 to 2100 UTC 20 April 2018
Forecast type: FROM: standard forecast or significant change
Winds: variable direction winds at 3 MPH (3 knots; 1.6 m/s)
Visibility: 6 or more miles (10+ km)
Clouds: clear skies
Weather: no significant weather forecast for this period
Forecast for: KORD (CHICAGO O'HARE , IL, US)
Text: KORD 200238Z 2003/2106 VRB03KT P6SM SKC
Forecast period: 0300 to 2100 UTC 20 April 2018
Forecast type: FROM: standard forecast or significant change
Winds: variable direction winds at 3 MPH (3 knots; 1.6 m/s)
Visibility: 6 or more miles (10+ km)
Clouds: clear skies
Weather: no significant weather forecast for this period
Forecast for: KORD (CHICAGO O'HARE , IL, US)
Text: KORD 200238Z 2003/2106 VRB03KT P6SM SKC
Forecast period: 2100 UTC 20 April 2018 to 0200 UTC 21 April 2018
Forecast type: FROM: standard forecast or significant change
Winds: from the E (80 degrees) at 12 MPH (10 knots; 5.2 m/s)
Visibility: 6 or more miles (10+ km)
Clouds: scattered clouds at 25000 feet AGL
Weather: no significant weather forecast for this period
Forecast for: KORD (CHICAGO O'HARE , IL, US)
Text: KORD 200238Z 2003/2106 VRB03KT P6SM SKC
Forecast period: 2100 UTC 20 April 2018 to 0200 UTC 21 April 2018
Forecast type: FROM: standard forecast or significant change
Winds: from the E (80 degrees) at 12 MPH (10 knots; 5.2 m/s)
Visibility: 6 or more miles (10+ km)
Clouds: scattered clouds at 25000 feet AGL
Weather: no significant weather forecast for this period
Forecast for: KORD (CHICAGO O'HARE , IL, US)
Text: KORD 200238Z 2003/2106 VRB03KT P6SM SKC
Forecast period: 0200 to 0600 UTC 21 April 2018
Forecast type: FROM: standard forecast or significant change
Winds: from the ENE (70 degrees) at 5 MPH (4 knots; 2.1 m/s)
Visibility: 6 or more miles (10+ km)
Clouds: scattered clouds at 25000 feet AGL
Weather: no significant weather forecast for this period
Forecast for: KORD (CHICAGO O'HARE , IL, US)
Text: KORD 200238Z 2003/2106 VRB03KT P6SM SKC
Forecast period: 0200 to 0600 UTC 21 April 2018
Forecast type: FROM: standard forecast or significant change
Winds: from the ENE (70 degrees) at 5 MPH (4 knots; 2.1 m/s)
Visibility: 6 or more miles (10+ km)
Clouds: scattered clouds at 25000 feet AGL
Weather: no significant weather forecast for this period